Time;durP1;ratioP1;P1;durP2;ratioP2;P2;SDS_P1;SDS_P2;PMS_P1;PMS_P2;Temp;Humidity;BMP_temperature;BMP_pressure;BME280_temperature;BME280_humidity;BME280_pressure;Samples;Min_cycle;Max_cycle;Signal;HPM_P1;HPM_P2
2022/04/02 00:02:05;;;;;;;7.20;3.03;;;1.90;99.90;;;;;;5043042;28;20057;-51
2022/04/02 00:04:31;;;;;;;5.25;3.15;;;1.90;99.90;;;;;;5026526;28;20057;-52
2022/04/02 00:06:58;;;;;;;5.68;2.95;;;1.90;99.90;;;;;;5047977;28;20099;-54
2022/04/02 00:09:24;;;;;;;5.55;3.10;;;1.90;99.90;;;;;;5045834;28;20044;-51
2022/04/02 00:11:50;;;;;;;4.40;2.60;;;1.90;99.90;;;;;;5046557;28;20047;-54
2022/04/02 00:14:17;;;;;;;4.75;2.78;;;1.90;99.90;;;;;;5048046;28;20044;-55
2022/04/02 00:16:43;;;;;;;9.10;3.13;;;1.80;99.90;;;;;;5052974;28;20124;-54
2022/04/02 00:19:10;;;;;;;5.97;3.15;;;1.80;99.90;;;;;;5066607;28;20041;-52
2022/04/02 00:21:37;;;;;;;7.18;2.90;;;1.80;99.90;;;;;;5055727;28;20055;-53
2022/04/02 00:24:03;;;;;;;6.30;2.92;;;1.80;99.90;;;;;;5048540;28;20095;-58
2022/04/02 00:26:29;;;;;;;6.13;3.10;;;1.70;99.90;;;;;;5028861;28;20041;-58
2022/04/02 00:28:55;;;;;;;5.10;2.65;;;1.70;99.90;;;;;;5046802;28;20064;-58
2022/04/02 00:31:22;;;;;;;4.78;2.70;;;1.60;99.90;;;;;;5061506;28;20550;-53
2022/04/02 00:33:49;;;;;;;4.75;2.88;;;1.60;99.90;;;;;;5008090;28;20049;-53
2022/04/02 00:36:19;;;;;;;7.32;3.10;;;1.60;99.90;;;;;;5042278;28;20084;-53
2022/04/02 00:38:45;;;;;;;5.65;2.70;;;1.50;99.90;;;;;;5049563;28;20504;-53
2022/04/02 00:41:13;;;;;;;5.15;2.53;;;1.50;99.90;;;;;;5045143;28;20784;-52
2022/04/02 00:43:44;;;;;;;7.07;3.38;;;1.50;99.90;;;;;;5040601;28;20048;-53
2022/04/02 00:46:12;;;;;;;5.68;2.95;;;1.50;99.90;;;;;;5046995;28;20083;-53
2022/04/02 00:48:39;;;;;;;5.25;3.05;;;1.40;99.90;;;;;;5067164;28;20152;-53
2022/04/02 00:51:07;;;;;;;4.95;3.28;;;1.40;99.90;;;;;;5048572;28;20104;-51
2022/04/02 00:53:40;;;;;;;5.75;2.75;;;1.40;99.90;;;;;;5016831;28;20486;-52
2022/04/02 00:56:07;;;;;;;4.57;2.97;;;1.40;99.90;;;;;;5049225;28;20115;-53
2022/04/02 00:58:33;;;;;;;4.72;3.05;;;1.30;99.90;;;;;;5051460;28;20504;-54
2022/04/02 01:01:01;;;;;;;4.90;2.80;;;1.30;99.90;;;;;;5035708;28;20460;-52
2022/04/02 01:03:34;;;;;;;6.97;3.38;;;1.30;99.90;;;;;;5025567;28;20076;-59
2022/04/02 01:06:02;;;;;;;4.35;2.75;;;1.30;99.90;;;;;;5059095;28;20051;-59
2022/04/02 01:08:32;;;;;;;7.00;3.03;;;1.20;99.90;;;;;;5044815;28;20436;-58
2022/04/02 01:10:59;;;;;;;6.15;3.00;;;1.20;99.90;;;;;;5048545;28;20442;-58
2022/04/02 01:13:27;;;;;;;5.22;3.28;;;1.20;99.90;;;;;;5042221;28;20053;-49
2022/04/02 01:15:56;;;;;;;4.75;3.20;;;1.20;99.90;;;;;;5048328;28;20040;-52
2022/04/02 01:18:23;;;;;;;5.50;3.50;;;1.20;99.90;;;;;;5046608;28;20242;-51
2022/04/02 01:20:53;;;;;;;4.30;2.63;;;1.10;99.90;;;;;;5062377;28;20041;-53
2022/04/02 01:23:29;;;;;;;6.50;3.22;;;1.10;99.90;;;;;;5027758;28;20398;-51
2022/04/02 01:26:01;;;;;;;5.07;2.80;;;1.00;99.90;;;;;;5031738;28;20133;-52
2022/04/02 01:28:34;;;;;;;8.07;3.13;;;1.00;99.90;;;;;;5049982;28;20376;-50
2022/04/02 01:31:05;;;;;;;5.53;3.13;;;1.00;99.90;;;;;;5061184;28;20103;-53
2022/04/02 01:33:31;;;;;;;6.38;3.13;;;1.00;99.90;;;;;;5007532;28;20130;-52
2022/04/02 01:36:01;;;;;;;4.75;2.80;;;1.00;99.90;;;;;;5057846;28;20144;-54
2022/04/02 01:38:29;;;;;;;6.43;3.22;;;0.90;99.90;;;;;;5046395;28;20432;-52
2022/04/02 01:40:57;;;;;;;5.47;3.38;;;0.90;99.90;;;;;;5049540;28;20044;-52
2022/04/02 01:43:32;;;;;;;6.70;3.17;;;0.90;99.90;;;;;;5051827;28;20036;-54
2022/04/02 01:45:59;;;;;;;5.68;3.13;;;0.90;99.90;;;;;;5049861;28;20044;-50
2022/04/02 01:48:28;;;;;;;5.32;3.25;;;0.90;99.90;;;;;;5029972;28;20049;-52
2022/04/02 01:51:01;;;;;;;5.60;3.28;;;0.90;99.90;;;;;;5050982;28;20048;-51
2022/04/02 01:53:30;;;;;;;7.45;3.58;;;0.90;99.90;;;;;;5046722;28;20384;-50
2022/04/02 01:55:56;;;;;;;6.72;3.45;;;0.80;99.90;;;;;;5047206;28;20044;-52
2022/04/02 01:58:34;;;;;;;7.55;3.67;;;0.80;99.90;;;;;;5064092;28;20151;-53
2022/04/02 02:01:04;;;;;;;4.53;2.90;;;0.80;99.90;;;;;;5047269;28;20123;-53
2022/04/02 02:03:31;;;;;;;8.25;3.50;;;0.70;99.90;;;;;;5061628;28;20060;-54
2022/04/02 02:05:57;;;;;;;5.82;3.13;;;0.80;99.90;;;;;;5043483;28;20336;-53
2022/04/02 02:08:24;;;;;;;6.00;3.33;;;0.80;99.90;;;;;;5045190;28;20044;-52
2022/04/02 02:10:58;;;;;;;6.97;3.50;;;0.70;99.90;;;;;;5065009;28;20360;-53
2022/04/02 02:13:39;;;;;;;6.72;3.50;;;0.70;99.90;;;;;;5050908;28;20044;-50
2022/04/02 02:16:13;;;;;;;5.38;3.30;;;0.70;99.90;;;;;;5045245;28;20049;-54
2022/04/02 02:18:39;;;;;;;7.47;3.03;;;0.70;99.90;;;;;;5048001;28;20072;-52
2022/04/02 02:21:07;;;;;;;6.07;3.40;;;0.70;99.90;;;;;;5063706;28;20452;-52
2022/04/02 02:23:33;;;;;;;5.43;3.35;;;0.70;99.90;;;;;;5044553;28;20088;-51
2022/04/02 02:25:59;;;;;;;7.03;3.40;;;0.70;99.90;;;;;;5043113;28;20040;-54
2022/04/02 02:28:25;;;;;;;5.50;3.05;;;0.70;99.90;;;;;;5045884;28;20051;-53
2022/04/02 02:30:55;;;;;;;6.57;3.20;;;0.70;99.90;;;;;;5049672;28;20070;-50
2022/04/02 02:36:06;;;;;;;4.90;3.00;;;0.70;99.90;;;;;;5054577;28;20497;-58
2022/04/02 02:38:45;;;;;;;5.28;3.33;;;0.70;99.90;;;;;;5048323;28;20123;-58
2022/04/02 02:41:18;;;;;;;6.75;3.40;;;0.70;99.90;;;;;;5013711;28;20045;-58
2022/04/02 02:43:48;;;;;;;5.28;3.22;;;0.70;99.90;;;;;;5040838;28;20041;-58
2022/04/02 02:46:28;;;;;;;5.32;2.97;;;0.70;99.90;;;;;;5063164;28;20036;-58
2022/04/02 02:49:00;;;;;;;6.93;3.97;;;0.60;99.90;;;;;;5032897;28;20268;-58
2022/04/02 02:51:27;;;;;;;6.05;3.47;;;0.60;99.90;;;;;;5037362;28;20052;-59
2022/04/02 02:53:53;;;;;;;6.82;3.33;;;0.60;99.90;;;;;;5038229;28;20052;-58
2022/04/02 02:56:19;;;;;;;5.88;3.22;;;0.60;99.90;;;;;;5048794;28;20059;-58
2022/04/02 02:58:48;;;;;;;5.18;3.72;;;0.60;99.90;;;;;;5041090;28;20103;-58
2022/04/02 03:01:16;;;;;;;5.53;3.47;;;0.60;99.90;;;;;;5033546;28;20045;-58
2022/04/02 03:03:44;;;;;;;8.50;3.08;;;0.60;99.90;;;;;;5035860;28;20055;-58
2022/04/02 03:06:13;;;;;;;5.15;3.47;;;0.60;99.90;;;;;;5048125;28;20049;-58
2022/04/02 03:08:43;;;;;;;6.28;3.17;;;0.50;99.90;;;;;;5053852;28;20137;-58
2022/04/02 03:11:10;;;;;;;9.05;3.40;;;0.50;99.90;;;;;;5038476;28;20060;-58
2022/04/02 03:13:38;;;;;;;5.32;3.38;;;0.50;99.90;;;;;;5039190;28;20040;-58
2022/04/02 03:16:07;;;;;;;6.32;3.75;;;0.50;99.90;;;;;;5043133;28;20047;-58
2022/04/02 03:18:40;;;;;;;6.85;3.10;;;0.50;99.90;;;;;;5042755;28;20052;-58
2022/04/02 03:21:09;;;;;;;7.35;3.72;;;0.40;99.90;;;;;;5051965;28;20044;-58
2022/04/02 03:23:36;;;;;;;6.53;3.70;;;0.40;99.90;;;;;;5044966;28;20455;-51
2022/04/02 03:26:02;;;;;;;6.75;3.20;;;0.40;99.90;;;;;;5047228;28;20071;-51
2022/04/02 03:28:35;;;;;;;7.30;3.42;;;0.40;99.90;;;;;;5025165;28;20040;-53
2022/04/02 03:31:01;;;;;;;6.28;3.13;;;0.40;99.90;;;;;;5029592;28;20090;-58
2022/04/02 03:33:28;;;;;;;6.82;3.45;;;0.40;99.90;;;;;;5046373;28;20067;-58
2022/04/02 03:35:59;;;;;;;7.25;3.75;;;0.30;99.90;;;;;;5070105;28;20521;-58
2022/04/02 03:38:25;;;;;;;6.35;3.85;;;0.30;99.90;;;;;;5047138;28;20040;-50
2022/04/02 03:40:52;;;;;;;7.10;3.92;;;0.30;99.90;;;;;;5064350;28;20088;-50
2022/04/02 03:43:21;;;;;;;6.50;3.67;;;0.30;99.90;;;;;;5052910;28;20044;-54
2022/04/02 03:45:47;;;;;;;5.72;3.42;;;0.30;99.90;;;;;;5066941;28;20504;-53
2022/04/02 03:48:13;;;;;;;5.90;3.50;;;0.30;99.90;;;;;;5055669;28;20058;-52
2022/04/02 03:50:42;;;;;;;8.95;3.60;;;0.20;99.90;;;;;;5051304;28;20048;-53
2022/04/02 03:53:14;;;;;;;7.28;3.50;;;0.20;99.90;;;;;;5056519;28;20131;-54
2022/04/02 03:55:52;;;;;;;10.13;4.15;;;0.20;99.90;;;;;;5036441;28;20351;-51
2022/04/02 03:58:27;;;;;;;7.70;3.78;;;0.20;99.90;;;;;;5044643;28;20518;-55
2022/04/02 04:00:53;;;;;;;8.77;3.78;;;0.10;99.90;;;;;;5046867;28;20081;-53
2022/04/02 04:03:20;;;;;;;8.18;3.50;;;0.20;99.90;;;;;;5045057;28;20102;-52
2022/04/02 04:05:50;;;;;;;9.25;3.60;;;0.10;99.90;;;;;;5022701;28;20556;-55
2022/04/02 04:08:17;;;;;;;6.43;3.47;;;0.10;99.90;;;;;;5049143;28;20055;-58
2022/04/02 04:10:45;;;;;;;5.80;3.53;;;0.10;99.90;;;;;;5043520;28;20105;-58
2022/04/02 04:13:13;;;;;;;5.90;3.67;;;0.10;99.90;;;;;;5047126;28;20581;-58
2022/04/02 04:15:41;;;;;;;8.23;3.60;;;0.10;99.90;;;;;;5059727;28;20492;-60
2022/04/02 04:18:08;;;;;;;6.20;3.67;;;0.10;99.90;;;;;;5048013;28;20049;-58
2022/04/02 04:20:35;;;;;;;7.78;4.10;;;0.10;99.90;;;;;;5056585;28;20090;-58
2022/04/02 04:23:04;;;;;;;8.75;3.85;;;0.10;99.90;;;;;;5045295;28;20262;-58
2022/04/02 04:25:31;;;;;;;7.85;3.88;;;0.10;99.90;;;;;;5032690;28;20052;-58
2022/04/02 04:28:01;;;;;;;6.63;3.22;;;0.10;99.90;;;;;;5048136;28;20136;-58
2022/04/02 04:30:28;;;;;;;7.47;4.13;;;0.10;99.90;;;;;;5042708;28;20127;-58
2022/04/02 04:32:57;;;;;;;7.57;3.45;;;0.10;99.90;;;;;;5063166;28;20045;-58
2022/04/02 04:35:25;;;;;;;5.78;3.72;;;0.00;99.90;;;;;;5047919;28;20473;-58
2022/04/02 04:37:52;;;;;;;10.73;4.05;;;0.00;99.90;;;;;;5038983;28;20041;-58
2022/04/02 04:40:27;;;;;;;7.63;3.65;;;0.00;99.90;;;;;;5055822;28;20055;-58
2022/04/02 04:42:56;;;;;;;8.70;3.90;;;0.00;99.90;;;;;;5058900;28;20410;-58
2022/04/02 04:45:36;;;;;;;8.15;3.70;;;0.00;99.90;;;;;;5036726;28;20045;-59
2022/04/02 04:48:05;;;;;;;8.32;3.80;;;0.00;99.90;;;;;;5043637;28;20123;-58
2022/04/02 04:50:37;;;;;;;7.35;3.63;;;0.00;99.90;;;;;;5057746;28;20075;-58
2022/04/02 04:53:04;;;;;;;7.78;3.50;;;0.00;99.90;;;;;;5049606;28;20501;-58
2022/04/02 04:55:31;;;;;;;8.20;3.40;;;0.00;99.90;;;;;;5044963;28;20544;-58
2022/04/02 04:57:59;;;;;;;7.70;4.03;;;0.00;99.90;;;;;;5039932;28;20092;-58
2022/04/02 05:00:28;;;;;;;8.50;4.15;;;0.00;99.90;;;;;;5048368;28;20665;-58
2022/04/02 05:02:55;;;;;;;11.13;4.18;;;0.00;99.90;;;;;;5040239;28;20534;-58
2022/04/02 05:05:31;;;;;;;7.45;3.50;;;0.00;99.90;;;;;;5030229;28;20060;-58
2022/04/02 05:08:00;;;;;;;8.15;3.75;;;0.00;99.90;;;;;;5056085;28;20049;-52
2022/04/02 05:10:27;;;;;;;7.03;3.67;;;0.00;99.90;;;;;;5012335;28;20458;-54
2022/04/02 05:12:55;;;;;;;8.80;3.70;;;0.00;99.90;;;;;;5042720;28;20052;-53
2022/04/02 05:15:22;;;;;;;7.15;3.88;;;0.00;99.90;;;;;;5046843;28;20044;-53
2022/04/02 05:17:49;;;;;;;8.10;3.60;;;0.00;99.90;;;;;;5030256;28;20686;-51
2022/04/02 05:20:17;;;;;;;8.45;4.00;;;0.00;99.90;;;;;;5001629;28;20067;-53
2022/04/02 05:22:46;;;;;;;8.30;4.18;;;0.00;99.90;;;;;;5049471;28;20122;-52
2022/04/02 05:25:14;;;;;;;8.30;3.67;;;0.00;99.90;;;;;;5061037;28;20114;-54
2022/04/02 05:27:43;;;;;;;8.50;3.55;;;0.00;99.90;;;;;;5050385;28;20122;-53
2022/04/02 05:30:11;;;;;;;7.72;4.15;;;0.00;99.90;;;;;;5014151;28;20036;-53
2022/04/02 05:32:38;;;;;;;5.88;3.55;;;0.00;99.90;;;;;;5060278;28;20057;-53
2022/04/02 05:35:05;;;;;;;6.28;3.90;;;0.10;99.90;;;;;;5040174;28;20539;-54
2022/04/02 05:37:31;;;;;;;10.88;4.13;;;0.10;99.90;;;;;;5065367;28;20048;-51
2022/04/02 05:39:57;;;;;;;6.35;3.63;;;0.10;99.90;;;;;;5044061;28;20639;-53
2022/04/02 05:42:25;;;;;;;7.25;3.90;;;0.20;99.90;;;;;;5034940;28;20044;-52
2022/04/02 05:44:53;;;;;;;7.25;3.65;;;0.20;99.90;;;;;;5047259;28;20419;-50
2022/04/02 05:47:20;;;;;;;8.25;3.92;;;0.30;99.90;;;;;;5043492;28;20075;-52
2022/04/02 05:49:51;;;;;;;6.18;3.50;;;0.30;99.90;;;;;;5041116;28;20542;-54
2022/04/02 05:52:17;;;;;;;7.57;3.70;;;0.40;99.90;;;;;;5058814;28;20131;-52
2022/04/02 05:54:43;;;;;;;8.02;4.03;;;0.50;99.90;;;;;;5044036;28;20084;-51
2022/04/02 05:57:10;;;;;;;13.23;5.78;;;0.50;99.90;;;;;;5050849;28;20632;-52
2022/04/02 05:59:38;;;;;;;9.13;5.07;;;0.50;99.90;;;;;;5058223;28;20049;-51
2022/04/02 06:02:04;;;;;;;9.15;4.55;;;0.60;99.90;;;;;;5023924;28;20197;-54
2022/04/02 06:04:30;;;;;;;7.50;4.72;;;0.60;99.90;;;;;;5053234;28;20057;-55
2022/04/02 06:06:56;;;;;;;10.82;4.38;;;0.70;99.90;;;;;;5037291;28;20052;-53
2022/04/02 06:09:22;;;;;;;9.40;4.28;;;0.80;99.90;;;;;;5040971;28;20049;-53
2022/04/02 06:11:48;;;;;;;7.38;3.85;;;0.90;99.90;;;;;;5023484;28;20044;-51
2022/04/02 06:14:14;;;;;;;7.55;4.28;;;0.90;99.90;;;;;;5036207;28;20381;-52
2022/04/02 06:16:40;;;;;;;7.75;4.35;;;1.00;99.90;;;;;;5044897;28;20048;-53
2022/04/02 06:19:06;;;;;;;8.15;4.03;;;1.10;99.90;;;;;;5023780;28;20059;-56
2022/04/02 06:21:33;;;;;;;6.28;3.90;;;1.20;99.90;;;;;;5042551;28;20048;-53
2022/04/02 06:24:04;;;;;;;8.93;4.35;;;1.30;99.90;;;;;;5039413;28;20041;-52
2022/04/02 06:26:30;;;;;;;11.13;4.93;;;1.40;99.90;;;;;;5042050;28;20041;-54
2022/04/02 06:28:59;;;;;;;10.90;5.10;;;1.50;99.90;;;;;;5040439;28;20096;-54
2022/04/02 06:31:25;;;;;;;10.55;5.35;;;1.70;99.90;;;;;;5036804;28;20375;-53
2022/04/02 06:33:52;;;;;;;9.18;5.25;;;1.80;99.90;;;;;;5040010;28;20045;-54
2022/04/02 06:36:19;;;;;;;11.90;5.32;;;1.90;99.90;;;;;;5056376;28;20052;-52
2022/04/02 06:38:46;;;;;;;16.38;9.43;;;2.10;99.90;;;;;;5040655;28;20439;-53
2022/04/02 06:41:12;;;;;;;7.93;5.20;;;2.20;99.90;;;;;;5040034;28;20048;-55
2022/04/02 06:43:39;;;;;;;7.82;5.07;;;2.40;99.90;;;;;;5032620;28;20340;-51
2022/04/02 06:46:08;;;;;;;6.78;3.97;;;2.50;99.90;;;;;;5035411;28;20045;-57
2022/04/02 06:48:34;;;;;;;6.32;3.58;;;2.60;99.90;;;;;;5045144;28;20049;-52
2022/04/02 06:51:01;;;;;;;13.63;6.68;;;2.70;99.90;;;;;;5045154;28;20040;-50
2022/04/02 06:53:28;;;;;;;6.93;3.60;;;2.90;99.90;;;;;;5039837;28;20041;-53
2022/04/02 06:55:54;;;;;;;7.47;4.25;;;3.00;99.90;;;;;;5050539;28;20114;-52
2022/04/02 06:58:31;;;;;;;8.43;5.00;;;3.20;99.90;;;;;;5037446;28;20045;-51
2022/04/02 07:00:57;;;;;;;7.43;3.60;;;3.30;99.90;;;;;;5054508;28;20508;-50
2022/04/02 07:03:24;;;;;;;8.32;3.55;;;3.50;99.90;;;;;;5038509;28;20136;-48
2022/04/02 07:05:50;;;;;;;7.50;3.88;;;3.60;99.90;;;;;;5041610;28;20388;-48
2022/04/02 07:08:17;;;;;;;7.43;5.50;;;3.80;99.90;;;;;;5040837;28;20044;-50
2022/04/02 07:10:43;;;;;;;6.70;3.38;;;4.00;99.90;;;;;;5039996;28;20094;-51
2022/04/02 07:13:09;;;;;;;9.52;3.45;;;4.00;99.90;;;;;;5040276;28;20694;-51
2022/04/02 07:15:35;;;;;;;5.40;3.30;;;4.20;99.90;;;;;;5040032;28;20048;-50
2022/04/02 07:18:10;;;;;;;7.50;4.00;;;4.30;99.90;;;;;;5022721;28;20068;-52
2022/04/02 07:20:39;;;;;;;7.25;4.38;;;4.50;99.90;;;;;;5022669;28;20420;-52
2022/04/02 07:23:09;;;;;;;8.38;4.38;;;4.70;99.90;;;;;;5036960;28;20052;-52
2022/04/02 07:25:40;;;;;;;9.45;5.13;;;4.90;99.90;;;;;;5056245;28;20044;-49
2022/04/02 07:28:08;;;;;;;9.60;3.63;;;4.90;99.90;;;;;;5039999;28;20115;-51
2022/04/02 07:30:36;;;;;;;7.50;4.38;;;5.10;99.90;;;;;;5023387;28;20125;-52
2022/04/02 07:33:03;;;;;;;10.85;7.47;;;5.30;99.90;;;;;;5039022;28;20045;-48
2022/04/02 07:35:54;;;;;;;11.30;5.65;;;5.30;99.90;;;;;;5039584;28;20404;-50
2022/04/02 07:38:22;;;;;;;10.73;6.47;;;5.60;99.90;;;;;;5036997;28;20044;-52
2022/04/02 07:41:25;;;;;;;9.93;7.47;;;5.90;99.90;;;;;;5039372;28;20040;-49
2022/04/02 07:44:13;;;;;;;8.52;4.38;;;6.20;99.90;;;;;;5039045;28;20508;-53
2022/04/02 07:46:43;;;;;;;11.07;7.35;;;6.70;99.90;;;;;;5040077;28;20124;-50
2022/04/02 07:49:12;;;;;;;5.95;3.53;;;7.00;99.90;;;;;;5038088;28;20045;-51
2022/04/02 07:51:40;;;;;;;7.63;5.03;;;7.10;99.90;;;;;;5040160;28;20045;-52
2022/04/02 07:54:09;;;;;;;9.20;4.97;;;7.20;99.90;;;;;;5033818;28;20048;-51
2022/04/02 07:56:48;;;;;;;9.65;3.78;;;7.40;99.90;;;;;;5037949;28;20048;-59
2022/04/02 07:59:26;;;;;;;8.45;3.60;;;7.30;99.90;;;;;;5039828;28;20037;-60
2022/04/02 08:01:53;;;;;;;6.85;3.80;;;7.50;99.90;;;;;;5040322;28;20044;-60
2022/04/02 08:04:22;;;;;;;10.07;4.00;;;7.70;99.90;;;;;;5039124;28;20064;-60
2022/04/02 08:06:52;;;;;;;8.00;3.83;;;7.60;99.90;;;;;;5055495;28;20049;-60
2022/04/02 08:09:25;;;;;;;9.93;3.45;;;7.80;99.90;;;;;;5038934;28;20045;-60
2022/04/02 08:11:52;;;;;;;8.30;4.25;;;7.70;99.90;;;;;;5057623;28;20500;-60
2022/04/02 08:14:18;;;;;;;6.32;3.80;;;7.70;99.90;;;;;;5044223;28;20216;-59
2022/04/02 08:16:45;;;;;;;5.38;3.55;;;8.10;99.90;;;;;;5044023;28;20124;-60
2022/04/02 08:19:12;;;;;;;6.70;4.85;;;8.00;99.90;;;;;;5024832;28;20106;-59
2022/04/02 08:21:39;;;;;;;5.57;3.33;;;7.90;99.90;;;;;;5042769;28;20052;-60
2022/04/02 08:24:06;;;;;;;9.85;4.72;;;7.70;99.90;;;;;;5023710;28;20072;-60
2022/04/02 08:27:04;;;;;;;8.70;3.30;;;7.50;99.90;;;;;;5041195;28;20508;-60
2022/04/02 08:30:09;;;;;;;7.38;4.03;;;7.70;99.90;;;;;;5007253;28;20048;-59
2022/04/02 08:33:04;;;;;;;5.28;3.63;;;7.20;99.90;;;;;;5039385;28;20052;-59
2022/04/02 08:35:39;;;;;;;5.97;3.13;;;6.80;99.90;;;;;;5043487;28;20055;-59
2022/04/02 08:38:08;;;;;;;8.20;3.65;;;6.50;99.90;;;;;;5043675;28;20047;-59
2022/04/02 08:40:53;;;;;;;4.65;2.85;;;6.20;99.90;;;;;;5040944;28;20450;-59
2022/04/02 08:43:53;;;;;;;9.13;4.00;;;6.10;99.90;;;;;;5035631;28;20186;-59
2022/04/02 08:46:57;;;;;;;8.27;4.22;;;5.90;99.90;;;;;;5043257;28;20048;-59
2022/04/02 08:49:36;;;;;;;7.43;3.75;;;5.70;99.90;;;;;;5042888;28;20053;-58
2022/04/02 08:52:08;;;;;;;8.00;3.70;;;5.90;99.90;;;;;;5044850;28;20048;-59
2022/04/02 08:54:57;;;;;;;7.72;3.75;;;6.00;99.90;;;;;;5022856;28;20051;-58
2022/04/02 08:57:32;;;;;;;8.68;3.20;;;6.10;99.90;;;;;;5038179;28;20496;-58
2022/04/02 09:00:25;;;;;;;7.72;3.22;;;5.90;99.90;;;;;;5041453;28;20040;-49
2022/04/02 09:02:54;;;;;;;5.50;3.22;;;5.80;99.90;;;;;;5038877;28;20625;-48
2022/04/02 09:05:28;;;;;;;7.38;2.95;;;5.80;99.90;;;;;;5037653;28;20090;-49
2022/04/02 09:08:13;;;;;;;6.28;3.30;;;5.60;99.90;;;;;;5033164;28;20049;-50
2022/04/02 09:11:13;;;;;;;6.63;3.08;;;5.50;99.90;;;;;;5041952;28;20049;-51
2022/04/02 09:13:56;;;;;;;5.50;3.28;;;5.30;99.90;;;;;;5042702;28;20103;-50
2022/04/02 09:16:28;;;;;;;4.10;2.08;;;5.20;99.90;;;;;;5057015;28;20049;-50
2022/04/02 09:19:09;;;;;;;6.78;3.65;;;5.00;99.90;;;;;;5023641;28;20049;-50
2022/04/02 09:21:54;;;;;;;8.88;2.92;;;4.90;99.90;;;;;;5042225;28;20094;-49
2022/04/02 09:24:58;;;;;;;6.97;3.13;;;4.80;99.90;;;;;;5041198;28;20110;-52
2022/04/02 09:28:02;;;;;;;4.35;2.88;;;4.80;99.90;;;;;;5042176;28;20159;-48
2022/04/02 09:30:49;;;;;;;6.63;2.78;;;4.80;99.90;;;;;;5037894;28;20155;-49
2022/04/02 09:33:34;;;;;;;5.80;3.33;;;4.80;99.90;;;;;;5054558;28;20083;-51
2022/04/02 09:36:22;;;;;;;5.97;3.15;;;4.90;99.90;;;;;;5041098;28;20146;-50
2022/04/02 09:38:48;;;;;;;5.13;2.85;;;5.00;99.90;;;;;;5023997;28;20534;-51
2022/04/02 09:41:23;;;;;;;5.63;2.50;;;5.20;99.90;;;;;;5041449;28;20037;-52
2022/04/02 09:44:01;;;;;;;7.10;3.15;;;5.40;99.90;;;;;;5040024;28;20106;-50
2022/04/02 09:46:50;;;;;;;7.05;2.55;;;5.50;99.90;;;;;;5040176;28;20037;-52
2022/04/02 09:49:24;;;;;;;8.73;2.40;;;5.60;99.90;;;;;;5041063;28;20051;-50
2022/04/02 09:52:01;;;;;;;6.82;2.72;;;5.80;99.90;;;;;;5041357;28;20049;-50
2022/04/02 09:54:38;;;;;;;7.65;2.40;;;5.80;99.90;;;;;;5041218;28;20053;-50
2022/04/02 09:57:14;;;;;;;6.28;2.22;;;6.00;99.90;;;;;;5041037;28;20129;-49
2022/04/02 09:59:46;;;;;;;5.07;2.50;;;6.00;99.90;;;;;;5041004;28;20532;-50
2022/04/02 10:02:19;;;;;;;;;;;6.10;99.90;;;;;;5005228;28;20059;-50
2022/04/02 10:04:54;;;;;;;9.07;2.80;;;6.00;99.90;;;;;;5040545;28;19925;-51
2022/04/02 10:07:36;;;;;;;5.68;2.53;;;5.80;99.90;;;;;;5039619;28;20045;-51
2022/04/02 10:10:03;;;;;;;6.28;2.35;;;5.70;99.90;;;;;;5040640;28;20041;-52
2022/04/02 10:12:30;;;;;;;4.97;2.03;;;5.50;99.90;;;;;;5036949;28;20069;-49
2022/04/02 10:14:59;;;;;;;4.28;1.80;;;5.40;99.90;;;;;;5040308;28;20036;-51
2022/04/02 10:17:30;;;;;;;6.43;2.30;;;5.20;99.90;;;;;;5037299;28;20435;-51
2022/04/02 10:19:59;;;;;;;4.07;1.85;;;5.10;99.90;;;;;;5039742;28;20048;-50
2022/04/02 10:22:45;;;;;;;4.22;2.00;;;5.00;99.90;;;;;;5052393;28;20417;-52
2022/04/02 10:25:14;;;;;;;6.85;2.80;;;4.90;99.90;;;;;;5056595;28;20106;-52
2022/04/02 10:27:43;;;;;;;5.15;2.15;;;5.00;99.90;;;;;;5040633;28;20072;-53
2022/04/02 10:30:11;;;;;;;5.80;2.13;;;5.10;99.90;;;;;;5040727;28;20104;-49
2022/04/02 10:32:52;;;;;;;5.53;2.22;;;5.50;99.90;;;;;;5039240;28;20098;-47
2022/04/02 10:35:20;;;;;;;3.22;2.00;;;5.90;99.90;;;;;;5056767;28;20508;-51
2022/04/02 10:38:06;;;;;;;4.18;2.65;;;6.90;99.90;;;;;;5041249;28;20048;-52
2022/04/02 10:40:40;;;;;;;3.33;2.08;;;8.00;99.90;;;;;;5040289;28;20103;-53
2022/04/02 10:43:14;;;;;;;4.40;2.00;;;9.20;99.90;;;;;;5038247;28;20051;-53
2022/04/02 10:45:40;;;;;;;4.53;1.80;;;10.20;99.90;;;;;;5022967;28;20059;-54
2022/04/02 10:48:12;;;;;;;3.42;1.70;;;10.40;99.90;;;;;;5041402;28;20523;-49
2022/04/02 10:50:40;;;;;;;3.33;1.73;;;10.50;97.70;;;;;;5039769;28;20041;-52
2022/04/02 10:53:10;;;;;;;3.90;1.90;;;10.10;99.90;;;;;;5038860;28;20045;-50
2022/04/02 10:55:45;;;;;;;3.65;1.60;;;10.10;97.40;;;;;;5036458;28;20098;-51
2022/04/02 10:58:13;;;;;;;3.72;1.70;;;10.00;93.70;;;;;;5040159;28;20048;-53
2022/04/02 11:00:45;;;;;;;3.72;1.50;;;9.80;98.90;;;;;;5041681;28;20119;-59
2022/04/02 11:03:25;;;;;;;4.68;1.80;;;9.50;97.70;;;;;;5039836;28;20072;-59
2022/04/02 11:05:51;;;;;;;3.70;1.77;;;9.50;98.50;;;;;;5056777;28;20049;-59
2022/04/02 11:08:22;;;;;;;4.85;1.70;;;9.20;99.20;;;;;;5037944;28;20068;-50
2022/04/02 11:10:48;;;;;;;3.55;1.88;;;8.80;95.80;;;;;;5041491;28;20200;-49
2022/04/02 11:13:29;;;;;;;3.88;1.80;;;8.60;98.60;;;;;;5038275;28;20045;-52
2022/04/02 11:15:56;;;;;;;3.72;1.98;;;7.80;96.10;;;;;;5041080;28;20436;-50
2022/04/02 11:18:24;;;;;;;4.00;1.83;;;7.60;99.50;;;;;;5036932;28;20106;-52
2022/04/02 11:21:00;;;;;;;4.65;2.22;;;7.40;99.90;;;;;;5041429;28;20041;-50
2022/04/02 11:23:50;;;;;;;6.82;2.05;;;7.10;99.90;;;;;;5041073;28;20423;-49
2022/04/02 11:26:20;;;;;;;4.10;1.60;;;7.20;99.90;;;;;;5040587;28;20595;-48
2022/04/02 11:28:52;;;;;;;3.47;1.80;;;7.30;99.90;;;;;;5037365;28;20040;-58
2022/04/02 11:31:29;;;;;;;4.35;1.90;;;7.50;98.70;;;;;;5054505;28;20473;-58
2022/04/02 11:33:58;;;;;;;4.82;2.25;;;7.80;97.80;;;;;;5038795;28;20565;-51
2022/04/02 11:36:41;;;;;;;4.70;1.77;;;8.10;95.10;;;;;;5040592;28;20056;-48
2022/04/02 11:39:11;;;;;;;4.03;1.77;;;8.30;90.00;;;;;;5038661;28;20075;-49
2022/04/02 11:41:41;;;;;;;5.03;2.10;;;8.30;92.60;;;;;;5039944;28;20049;-58
2022/04/02 11:44:14;;;;;;;8.38;2.13;;;8.00;96.70;;;;;;5040177;28;20556;-59
2022/04/02 11:47:01;;;;;;;4.88;1.88;;;7.60;99.00;;;;;;5043875;28;20054;-59
2022/04/02 11:49:31;;;;;;;5.72;2.30;;;7.50;99.90;;;;;;5044231;28;20551;-59
2022/04/02 11:52:06;;;;;;;5.57;1.90;;;7.40;99.90;;;;;;5047023;28;20048;-59
2022/04/02 11:54:40;;;;;;;6.00;2.30;;;7.20;99.90;;;;;;5023336;28;20077;-59
2022/04/02 11:57:07;;;;;;;3.40;1.60;;;7.20;97.30;;;;;;5043301;28;20055;-59
2022/04/02 11:59:35;;;;;;;3.58;1.77;;;7.20;96.70;;;;;;5043483;28;20059;-59
2022/04/02 12:02:03;;;;;;;4.05;1.63;;;7.20;94.70;;;;;;5042996;28;20380;-59
2022/04/02 12:04:29;;;;;;;3.25;1.75;;;7.40;94.30;;;;;;5038707;28;20170;-59
2022/04/02 12:07:06;;;;;;;3.20;1.70;;;7.60;93.90;;;;;;5060007;28;20504;-59
2022/04/02 12:09:36;;;;;;;7.65;1.98;;;7.50;91.60;;;;;;5042728;28;20045;-59
2022/04/02 12:12:06;;;;;;;4.28;1.63;;;7.40;89.90;;;;;;5044220;28;20061;-59
2022/04/02 12:14:34;;;;;;;3.00;1.58;;;7.30;86.00;;;;;;5039011;28;20052;-59
2022/04/02 12:17:01;;;;;;;3.67;1.80;;;7.20;89.10;;;;;;5005669;28;20045;-50
2022/04/02 12:19:38;;;;;;;4.28;1.95;;;7.10;87.20;;;;;;5044037;28;20037;-59
2022/04/02 12:22:34;;;;;;;5.40;2.60;;;7.10;83.80;;;;;;5040721;28;20049;-59
2022/04/02 12:25:06;;;;;;;3.38;1.40;;;7.10;80.10;;;;;;5058988;28;20057;-52
2022/04/02 12:27:37;;;;;;;5.25;2.15;;;7.40;75.80;;;;;;5042279;28;20061;-51
2022/04/02 12:30:07;;;;;;;3.95;2.03;;;8.00;80.00;;;;;;5058526;28;20067;-52
2022/04/02 12:32:35;;;;;;;3.92;1.80;;;8.00;71.80;;;;;;5044075;28;20052;-50
2022/04/02 12:35:10;;;;;;;6.22;1.77;;;7.90;67.30;;;;;;5043839;28;20411;-48
2022/04/02 12:37:45;;;;;;;4.80;1.67;;;7.90;69.40;;;;;;5042343;28;20066;-53
2022/04/02 12:40:20;;;;;;;4.22;1.60;;;8.20;72.20;;;;;;5042336;28;20083;-54
2022/04/02 12:42:47;;;;;;;3.60;1.60;;;8.20;73.30;;;;;;5039056;28;20049;-52
2022/04/02 12:45:19;;;;;;;3.78;1.60;;;8.00;74.80;;;;;;5043674;28;20378;-59
2022/04/02 12:48:02;;;;;;;5.22;1.80;;;7.60;77.90;;;;;;5044014;28;20041;-50
2022/04/02 12:50:40;;;;;;;4.00;2.00;;;7.30;82.90;;;;;;5037755;28;20488;-59
2022/04/02 12:53:06;;;;;;;2.75;1.50;;;7.20;82.70;;;;;;5040817;28;20103;-59
2022/04/02 12:55:34;;;;;;;2.63;1.63;;;7.20;81.50;;;;;;5042412;28;20542;-53
2022/04/02 12:58:10;;;;;;;2.53;1.45;;;7.20;80.50;;;;;;5042593;28;20040;-50
2022/04/02 13:00:43;;;;;;;4.10;1.70;;;7.40;79.00;;;;;;5043338;28;20041;-53
2022/04/02 13:03:20;;;;;;;4.30;1.75;;;7.90;76.80;;;;;;5040764;28;20064;-50
2022/04/02 13:05:51;;;;;;;4.55;1.67;;;8.00;68.10;;;;;;5039893;28;20064;-52
2022/04/02 13:08:23;;;;;;;4.35;1.63;;;8.20;66.00;;;;;;5042904;28;20049;-48
2022/04/02 13:10:55;;;;;;;2.83;1.48;;;8.10;60.60;;;;;;5041781;28;20094;-50
2022/04/02 13:13:37;;;;;;;3.60;1.95;;;8.20;62.70;;;;;;5054118;28;20356;-50
2022/04/02 13:16:04;;;;;;;3.95;1.80;;;8.20;59.80;;;;;;5042384;28;20087;-47
2022/04/02 13:21:22;;;;;;;3.55;1.60;;;8.40;57.00;;;;;;5041371;28;20554;-53
2022/04/02 13:24:23;;;;;;;2.63;1.40;;;8.70;54.20;;;;;;5040382;28;20429;-53
2022/04/02 13:27:07;;;;;;;3.25;1.67;;;8.70;53.60;;;;;;5057181;28;20060;-50